sensor_id;sensor_type;location;lat;lon;timestamp;pressure;altitude;pressure_sealevel;temperature;humidity
59170;BME280;52474;52.236;5.114;2023-04-03T00:01:40;103149.47;;;2.55;100.00
59170;BME280;52474;52.236;5.114;2023-04-03T00:04:05;103130.59;;;2.36;100.00
59170;BME280;52474;52.236;5.114;2023-04-03T00:06:31;103132.38;;;2.34;100.00
59170;BME280;52474;52.236;5.114;2023-04-03T00:08:57;103137.66;;;2.31;100.00
59170;BME280;52474;52.236;5.114;2023-04-03T00:11:23;103136.75;;;2.31;100.00
59170;BME280;52474;52.236;5.114;2023-04-03T00:13:49;103147.28;;;2.26;100.00
59170;BME280;52474;52.236;5.114;2023-04-03T00:16:15;103139.41;;;2.28;100.00
59170;BME280;52474;52.236;5.114;2023-04-03T00:18:41;103151.53;;;2.33;100.00
59170;BME280;52474;52.236;5.114;2023-04-03T00:21:09;103149.88;;;2.29;100.00
59170;BME280;52474;52.236;5.114;2023-04-03T00:23:35;103144.66;;;2.26;100.00
59170;BME280;52474;52.236;5.114;2023-04-03T00:26:01;103155.09;;;2.28;100.00
59170;BME280;52474;52.236;5.114;2023-04-03T00:28:27;103149.88;;;2.29;100.00
59170;BME280;52474;52.236;5.114;2023-04-03T00:30:53;103148.34;;;2.13;100.00
59170;BME280;52474;52.236;5.114;2023-04-03T00:33:20;103159.53;;;2.21;100.00
59170;BME280;52474;52.236;5.114;2023-04-03T00:35:47;103152.72;;;2.11;100.00
59170;BME280;52474;52.236;5.114;2023-04-03T00:38:14;103154.47;;;2.09;100.00
59170;BME280;52474;52.236;5.114;2023-04-03T00:40:46;103162.25;;;2.15;100.00
59170;BME280;52474;52.236;5.114;2023-04-03T00:43:15;103155.38;;;2.08;100.00
59170;BME280;52474;52.236;5.114;2023-04-03T00:45:48;103149.28;;;2.06;100.00
59170;BME280;52474;52.236;5.114;2023-04-03T00:48:18;103152.81;;;2.03;100.00
59170;BME280;52474;52.236;5.114;2023-04-03T00:50:49;103155.38;;;2.08;100.00
59170;BME280;52474;52.236;5.114;2023-04-03T00:53:19;103167.59;;;2.06;100.00
59170;BME280;52474;52.236;5.114;2023-04-03T00:55:48;103155.47;;;1.99;100.00
59170;BME280;52474;52.236;5.114;2023-04-03T00:58:19;103151.19;;;1.93;100.00
59170;BME280;52474;52.236;5.114;2023-04-03T01:00:50;103155.53;;;1.96;100.00
59170;BME280;52474;52.236;5.114;2023-04-03T01:03:21;103168.50;;;2.03;100.00
59170;BME280;52474;52.236;5.114;2023-04-03T01:05:47;103176.34;;;2.03;100.00
59170;BME280;52474;52.236;5.114;2023-04-03T01:08:13;103163.41;;;1.89;100.00
59170;BME280;52474;52.236;5.114;2023-04-03T01:10:39;103173.00;;;1.89;100.00
59170;BME280;52474;52.236;5.114;2023-04-03T01:13:22;103180.84;;;1.89;100.00
59170;BME280;52474;52.236;5.114;2023-04-03T01:15:48;103162.66;;;1.83;100.00
59170;BME280;52474;52.236;5.114;2023-04-03T01:18:14;103180.84;;;1.92;100.00
59170;BME280;52474;52.236;5.114;2023-04-03T01:20:59;103175.66;;;1.86;100.00
59170;BME280;52474;52.236;5.114;2023-04-03T01:26:12;103172.16;;;1.87;100.00
59170;BME280;52474;52.236;5.114;2023-04-03T01:28:38;103176.56;;;1.85;100.00
59170;BME280;52474;52.236;5.114;2023-04-03T01:33:58;103167.97;;;1.72;100.00
59170;BME280;52474;52.236;5.114;2023-04-03T01:36:27;103181.88;;;1.76;100.00
59170;BME280;52474;52.236;5.114;2023-04-03T01:38:55;103175.84;;;1.70;100.00
59170;BME280;52474;52.236;5.114;2023-04-03T01:41:22;103174.94;;;1.71;100.00
59170;BME280;52474;52.236;5.114;2023-04-03T01:43:50;103180.19;;;1.71;100.00
59170;BME280;52474;52.236;5.114;2023-04-03T01:46:19;103144.69;;;1.52;100.00
59170;BME280;52474;52.236;5.114;2023-04-03T01:48:49;103165.53;;;1.58;100.00
59170;BME280;52474;52.236;5.114;2023-04-03T01:51:15;103149.91;;;1.55;100.00
59170;BME280;52474;52.236;5.114;2023-04-03T01:53:40;103168.16;;;1.58;100.00
59170;BME280;52474;52.236;5.114;2023-04-03T01:56:06;103173.38;;;1.57;100.00
59170;BME280;52474;52.236;5.114;2023-04-03T01:58:33;103182.09;;;1.56;100.00
59170;BME280;52474;52.236;5.114;2023-04-03T02:00:59;103174.34;;;1.46;100.00
59170;BME280;52474;52.236;5.114;2023-04-03T02:03:25;103163.94;;;1.42;100.00
59170;BME280;52474;52.236;5.114;2023-04-03T02:05:52;103175.16;;;1.53;100.00
59170;BME280;52474;52.236;5.114;2023-04-03T02:08:18;103171.69;;;1.49;100.00
59170;BME280;52474;52.236;5.114;2023-04-03T02:10:48;103165.69;;;1.41;100.00
59170;BME280;52474;52.236;5.114;2023-04-03T02:13:14;103189.06;;;1.54;100.00
59170;BME280;52474;52.236;5.114;2023-04-03T02:15:40;103189.19;;;1.43;100.00
59170;BME280;52474;52.236;5.114;2023-04-03T02:18:07;103183.94;;;1.44;100.00
59170;BME280;52474;52.236;5.114;2023-04-03T02:20:33;103177.06;;;1.36;100.00
59170;BME280;52474;52.236;5.114;2023-04-03T02:23:00;103183.94;;;1.44;100.00
59170;BME280;52474;52.236;5.114;2023-04-03T02:25:26;103182.28;;;1.34;100.00
59170;BME280;52474;52.236;5.114;2023-04-03T02:27:52;103183.16;;;1.36;100.00
59170;BME280;52474;52.236;5.114;2023-04-03T02:30:17;103164.09;;;1.25;100.00
59170;BME280;52474;52.236;5.114;2023-04-03T02:32:44;103193.59;;;1.36;100.00
59170;BME280;52474;52.236;5.114;2023-04-03T02:35:10;103190.06;;;1.40;100.00
59170;BME280;52474;52.236;5.114;2023-04-03T02:37:36;103197.06;;;1.38;100.00
59170;BME280;52474;52.236;5.114;2023-04-03T02:40:04;103181.50;;;1.23;100.00
59170;BME280;52474;52.236;5.114;2023-04-03T02:42:30;103175.44;;;1.24;100.00
59170;BME280;52474;52.236;5.114;2023-04-03T02:44:56;103194.47;;;1.35;100.00
59170;BME280;52474;52.236;5.114;2023-04-03T02:47:22;103135.69;;;0.93;100.00
59170;BME280;52474;52.236;5.114;2023-04-03T02:49:48;103202.41;;;1.26;100.00
59170;BME280;52474;52.236;5.114;2023-04-03T02:52:14;103198.09;;;1.19;100.00
59170;BME280;52474;52.236;5.114;2023-04-03T02:54:40;103187.72;;;1.11;100.00
59170;BME280;52474;52.236;5.114;2023-04-03T02:57:08;103187.69;;;1.13;100.00
59170;BME280;52474;52.236;5.114;2023-04-03T02:59:40;103213.72;;;1.22;100.00
59170;BME280;52474;52.236;5.114;2023-04-03T03:02:08;103166.13;;;0.91;100.00
59170;BME280;52474;52.236;5.114;2023-04-03T03:04:34;103216.34;;;1.22;100.00
59170;BME280;52474;52.236;5.114;2023-04-03T03:07:01;103216.38;;;1.19;100.00
59170;BME280;52474;52.236;5.114;2023-04-03T03:09:28;103215.53;;;1.12;100.00
59170;BME280;52474;52.236;5.114;2023-04-03T03:11:55;103200.84;;;1.03;100.00
59170;BME280;52474;52.236;5.114;2023-04-03T03:14:22;103230.38;;;1.05;100.00
59170;BME280;52474;52.236;5.114;2023-04-03T03:16:47;103226.00;;;1.07;100.00
59170;BME280;52474;52.236;5.114;2023-04-03T03:19:13;103225.16;;;1.05;100.00
59170;BME280;52474;52.236;5.114;2023-04-03T03:21:39;103228.63;;;1.09;100.00
59170;BME280;52474;52.236;5.114;2023-04-03T03:24:05;103231.19;;;1.12;100.00
59170;BME280;52474;52.236;5.114;2023-04-03T03:26:32;103234.69;;;1.11;100.00
59170;BME280;52474;52.236;5.114;2023-04-03T03:28:57;103204.34;;;0.98;100.00
59170;BME280;52474;52.236;5.114;2023-04-03T03:31:23;103232.97;;;1.05;100.00
59170;BME280;52474;52.236;5.114;2023-04-03T03:33:49;103226.06;;;1.01;100.00
59170;BME280;52474;52.236;5.114;2023-04-03T03:36:15;103223.50;;;0.97;100.00
59170;BME280;52474;52.236;5.114;2023-04-03T03:38:41;103226.94;;;1.00;100.00
59170;BME280;52474;52.236;5.114;2023-04-03T03:41:08;103232.19;;;0.97;100.00
59170;BME280;52474;52.236;5.114;2023-04-03T03:43:35;103231.34;;;0.92;100.00
59170;BME280;52474;52.236;5.114;2023-04-03T03:46:02;103220.06;;;0.87;100.00
59170;BME280;52474;52.236;5.114;2023-04-03T03:48:28;103234.78;;;0.96;100.00
59170;BME280;52474;52.236;5.114;2023-04-03T03:50:55;103239.16;;;0.95;100.00
59170;BME280;52474;52.236;5.114;2023-04-03T03:53:25;103228.75;;;0.88;100.00
59170;BME280;52474;52.236;5.114;2023-04-03T03:55:54;103240.91;;;0.90;100.00
59170;BME280;52474;52.236;5.114;2023-04-03T03:58:23;103221.00;;;0.78;100.00
59170;BME280;52474;52.236;5.114;2023-04-03T04:00:49;103235.69;;;0.90;100.00
59170;BME280;52474;52.236;5.114;2023-04-03T04:03:15;103226.16;;;0.89;100.00
59170;BME280;52474;52.236;5.114;2023-04-03T04:05:42;103235.75;;;0.84;100.00
59170;BME280;52474;52.236;5.114;2023-04-03T04:08:09;103235.78;;;0.78;100.00
59170;BME280;52474;52.236;5.114;2023-04-03T04:10:37;103248.81;;;0.79;100.00
59170;BME280;52474;52.236;5.114;2023-04-03T04:13:03;103252.31;;;0.77;100.00
59170;BME280;52474;52.236;5.114;2023-04-03T04:15:30;103248.84;;;0.75;100.00
59170;BME280;52474;52.236;5.114;2023-04-03T04:17:57;103254.06;;;0.73;100.00
59170;BME280;52474;52.236;5.114;2023-04-03T04:20:23;103249.72;;;0.72;100.00
59170;BME280;52474;52.236;5.114;2023-04-03T04:22:49;103250.59;;;0.71;100.00
59170;BME280;52474;52.236;5.114;2023-04-03T04:25:16;103254.97;;;0.69;100.00
59170;BME280;52474;52.236;5.114;2023-04-03T04:27:41;103253.19;;;0.73;100.00
59170;BME280;52474;52.236;5.114;2023-04-03T04:30:09;103245.41;;;0.65;100.00
59170;BME280;52474;52.236;5.114;2023-04-03T04:32:36;103264.50;;;0.69;100.00
59170;BME280;52474;52.236;5.114;2023-04-03T04:35:03;103256.75;;;0.59;100.00
59170;BME280;52474;52.236;5.114;2023-04-03T04:37:31;103248.91;;;0.61;100.00
59170;BME280;52474;52.236;5.114;2023-04-03T04:39:58;103261.09;;;0.57;100.00
59170;BME280;52474;52.236;5.114;2023-04-03T04:42:26;103258.47;;;0.59;100.00
59170;BME280;52474;52.236;5.114;2023-04-03T04:44:52;103259.38;;;0.59;100.00
59170;BME280;52474;52.236;5.114;2023-04-03T04:47:21;103259.44;;;0.42;100.00
59170;BME280;52474;52.236;5.114;2023-04-03T04:49:46;103254.19;;;0.50;100.00
59170;BME280;52474;52.236;5.114;2023-04-03T04:52:13;103264.63;;;0.52;100.00
59170;BME280;52474;52.236;5.114;2023-04-03T04:54:40;103255.91;;;0.51;100.00
59170;BME280;52474;52.236;5.114;2023-04-03T04:57:06;103253.31;;;0.47;100.00
59170;BME280;52474;52.236;5.114;2023-04-03T04:59:33;103267.25;;;0.46;100.00
59170;BME280;52474;52.236;5.114;2023-04-03T05:01:58;103251.63;;;0.39;100.00
59170;BME280;52474;52.236;5.114;2023-04-03T05:04:25;103254.22;;;0.42;100.00
59170;BME280;52474;52.236;5.114;2023-04-03T05:06:56;103269.81;;;0.53;100.00
59170;BME280;52474;52.236;5.114;2023-04-03T05:09:25;103278.50;;;0.54;100.00
59170;BME280;52474;52.236;5.114;2023-04-03T05:11:52;103287.19;;;0.51;100.00
59170;BME280;52474;52.236;5.114;2023-04-03T05:14:21;103276.78;;;0.54;100.00
59170;BME280;52474;52.236;5.114;2023-04-03T05:16:48;103286.31;;;0.49;100.00
59170;BME280;52474;52.236;5.114;2023-04-03T05:19:14;103290.69;;;0.55;100.00
59170;BME280;52474;52.236;5.114;2023-04-03T05:21:42;103291.53;;;0.57;100.00
59170;BME280;52474;52.236;5.114;2023-04-03T05:24:13;103283.72;;;0.52;100.00
59170;BME280;52474;52.236;5.114;2023-04-03T05:26:42;103264.66;;;0.42;100.00
59170;BME280;52474;52.236;5.114;2023-04-03T05:29:09;103286.31;;;0.55;100.00
59170;BME280;52474;52.236;5.114;2023-04-03T05:31:35;103276.81;;;0.43;100.00
59170;BME280;52474;52.236;5.114;2023-04-03T05:34:02;103280.31;;;0.39;100.00
59170;BME280;52474;52.236;5.114;2023-04-03T05:36:32;103296.75;;;0.54;100.00
59170;BME280;52474;52.236;5.114;2023-04-03T05:39:02;103309.78;;;0.60;100.00
59170;BME280;52474;52.236;5.114;2023-04-03T05:41:29;103291.53;;;0.49;100.00
59170;BME280;52474;52.236;5.114;2023-04-03T05:43:55;103301.06;;;0.56;100.00
59170;BME280;52474;52.236;5.114;2023-04-03T05:46:25;103285.47;;;0.49;100.00
59170;BME280;52474;52.236;5.114;2023-04-03T05:48:54;103307.16;;;0.60;100.00
59170;BME280;52474;52.236;5.114;2023-04-03T05:51:27;103297.63;;;0.54;100.00
59170;BME280;52474;52.236;5.114;2023-04-03T05:54:06;103308.03;;;0.62;100.00
59170;BME280;52474;52.236;5.114;2023-04-03T05:56:35;103281.09;;;0.55;100.00
59170;BME280;52474;52.236;5.114;2023-04-03T05:59:01;103306.22;;;0.75;100.00
59170;BME280;52474;52.236;5.114;2023-04-03T06:01:27;103307.97;;;0.73;100.00
59170;BME280;52474;52.236;5.114;2023-04-03T06:03:54;103311.44;;;0.78;100.00
59170;BME280;52474;52.236;5.114;2023-04-03T06:06:42;103307.03;;;0.83;100.00
59170;BME280;52474;52.236;5.114;2023-04-03T06:09:09;103287.09;;;0.76;100.00
59170;BME280;52474;52.236;5.114;2023-04-03T06:11:35;103316.56;;;0.89;100.00
59170;BME280;52474;52.236;5.114;2023-04-03T06:14:01;103299.22;;;0.83;100.00
59170;BME280;52474;52.236;5.114;2023-04-03T06:16:28;103305.28;;;0.88;100.00
59170;BME280;52474;52.236;5.114;2023-04-03T06:18:54;103312.19;;;0.98;100.00
59170;BME280;52474;52.236;5.114;2023-04-03T06:21:23;103313.06;;;0.99;100.00
59170;BME280;52474;52.236;5.114;2023-04-03T06:23:49;103300.91;;;0.96;100.00
59170;BME280;52474;52.236;5.114;2023-04-03T06:26:15;103320.81;;;1.10;100.00
59170;BME280;52474;52.236;5.114;2023-04-03T06:28:40;103326.03;;;1.11;100.00
59170;BME280;52474;52.236;5.114;2023-04-03T06:31:06;103326.03;;;1.13;100.00
59170;BME280;52474;52.236;5.114;2023-04-03T06:33:34;103321.63;;;1.18;100.00
59170;BME280;52474;52.236;5.114;2023-04-03T06:36:04;103318.16;;;1.17;100.00
59170;BME280;52474;52.236;5.114;2023-04-03T06:38:31;103315.59;;;1.16;100.00
59170;BME280;52474;52.236;5.114;2023-04-03T06:40:57;103303.38;;;1.18;100.00
59170;BME280;52474;52.236;5.114;2023-04-03T06:43:22;103331.13;;;1.36;100.00
59170;BME280;52474;52.236;5.114;2023-04-03T06:45:48;103331.94;;;1.38;100.00
59170;BME280;52474;52.236;5.114;2023-04-03T06:48:14;103337.16;;;1.39;100.00
59170;BME280;52474;52.236;5.114;2023-04-03T06:50:40;103344.09;;;1.45;100.00
59170;BME280;52474;52.236;5.114;2023-04-03T06:53:06;103343.22;;;1.46;100.00
59170;BME280;52474;52.236;5.114;2023-04-03T06:55:32;103349.25;;;1.54;100.00
59170;BME280;52474;52.236;5.114;2023-04-03T06:57:58;103350.09;;;1.58;100.00
59170;BME280;52474;52.236;5.114;2023-04-03T07:00:24;103344.00;;;1.60;100.00
59170;BME280;52474;52.236;5.114;2023-04-03T07:02:50;103350.00;;;1.67;100.00
59170;BME280;52474;52.236;5.114;2023-04-03T07:05:17;103347.44;;;1.65;100.00
59170;BME280;52474;52.236;5.114;2023-04-03T07:07:43;103352.59;;;1.71;100.00
59170;BME280;52474;52.236;5.114;2023-04-03T07:10:10;103349.94;;;1.76;100.00
59170;BME280;52474;52.236;5.114;2023-04-03T07:12:37;103352.50;;;1.84;100.00
59170;BME280;52474;52.236;5.114;2023-04-03T07:15:05;103332.47;;;1.81;100.00
59170;BME280;52474;52.236;5.114;2023-04-03T07:17:30;103356.78;;;1.89;100.00
59170;BME280;52474;52.236;5.114;2023-04-03T07:19:56;103347.34;;;1.78;100.00
59170;BME280;52474;52.236;5.114;2023-04-03T07:22:22;103366.34;;;1.93;100.00
59170;BME280;52474;52.236;5.114;2023-04-03T07:24:48;103348.94;;;1.92;100.00
59170;BME280;52474;52.236;5.114;2023-04-03T07:27:14;103366.25;;;2.06;100.00
59170;BME280;52474;52.236;5.114;2023-04-03T07:29:40;103360.97;;;2.10;100.00
59170;BME280;52474;52.236;5.114;2023-04-03T07:32:06;103364.41;;;2.14;100.00
59170;BME280;52474;52.236;5.114;2023-04-03T07:34:32;103343.63;;;2.02;100.00
59170;BME280;52474;52.236;5.114;2023-04-03T07:36:58;103363.47;;;2.21;100.00
59170;BME280;52474;52.236;5.114;2023-04-03T07:39:25;103362.53;;;2.30;100.00
59170;BME280;52474;52.236;5.114;2023-04-03T07:41:51;103374.63;;;2.42;100.00
59170;BME280;52474;52.236;5.114;2023-04-03T07:44:17;103370.16;;;2.51;100.00
59170;BME280;52474;52.236;5.114;2023-04-03T07:46:43;103360.50;;;2.55;100.00
59170;BME280;52474;52.236;5.114;2023-04-03T07:49:09;103376.13;;;2.63;100.00
59170;BME280;52474;52.236;5.114;2023-04-03T07:51:35;103362.06;;;2.71;100.00
59170;BME280;52474;52.236;5.114;2023-04-03T07:54:01;103369.72;;;2.88;100.00
59170;BME280;52474;52.236;5.114;2023-04-03T07:56:27;103377.34;;;3.05;100.00
59170;BME280;52474;52.236;5.114;2023-04-03T07:58:53;103386.66;;;3.26;100.00
59170;BME280;52474;52.236;5.114;2023-04-03T08:01:19;103350.84;;;3.28;100.00
59170;BME280;52474;52.236;5.114;2023-04-03T08:03:45;103375.66;;;3.61;100.00
59170;BME280;52474;52.236;5.114;2023-04-03T08:06:10;103375.47;;;3.74;100.00
59170;BME280;52474;52.236;5.114;2023-04-03T08:08:36;103373.66;;;4.75;100.00
59170;BME280;52474;52.236;5.114;2023-04-03T08:11:03;103358.91;;;12.43;100.00
59170;BME280;52474;52.236;5.114;2023-04-03T08:13:31;103351.44;;;16.52;100.00
59170;BME280;52474;52.236;5.114;2023-04-03T08:16:07;103364.88;;;17.26;90.69
59170;BME280;52474;52.236;5.114;2023-04-03T08:18:33;103380.63;;;18.82;92.21
59170;BME280;52474;52.236;5.114;2023-04-03T08:20:59;103390.25;;;19.50;80.89
59170;BME280;52474;52.236;5.114;2023-04-03T08:23:25;103371.16;;;17.25;77.82
59170;BME280;52474;52.236;5.114;2023-04-03T08:25:51;103381.97;;;18.99;77.67
59170;BME280;52474;52.236;5.114;2023-04-03T08:28:17;103385.16;;;18.81;60.89
59170;BME280;52474;52.236;5.114;2023-04-03T08:30:44;103383.38;;;19.14;61.98
59170;BME280;52474;52.236;5.114;2023-04-03T08:33:12;103371.84;;;20.30;67.09
59170;BME280;52474;52.236;5.114;2023-04-03T08:35:39;103384.50;;;19.44;59.49
59170;BME280;52474;52.236;5.114;2023-04-03T08:38:09;103390.31;;;19.28;52.03
59170;BME280;52474;52.236;5.114;2023-04-03T08:40:36;103369.47;;;21.08;52.60
59170;BME280;52474;52.236;5.114;2023-04-03T08:46:00;103381.38;;;20.95;42.86
59170;BME280;52474;52.236;5.114;2023-04-03T08:48:36;103385.88;;;22.50;44.87
59170;BME280;52474;52.236;5.114;2023-04-03T08:51:14;103384.84;;;23.17;42.75
59170;BME280;52474;52.236;5.114;2023-04-03T08:54:00;103388.38;;;21.95;37.66
59170;BME280;52474;52.236;5.114;2023-04-03T08:56:33;103381.19;;;23.26;39.19
59170;BME280;52474;52.236;5.114;2023-04-03T08:59:10;103374.78;;;21.87;38.11
59170;BME280;52474;52.236;5.114;2023-04-03T09:01:40;103392.25;;;23.50;37.63
59170;BME280;52474;52.236;5.114;2023-04-03T09:04:15;103382.59;;;24.62;34.57
59170;BME280;52474;52.236;5.114;2023-04-03T09:06:58;103351.72;;;22.12;32.23
59170;BME280;52474;52.236;5.114;2023-04-03T09:09:35;103375.56;;;22.64;33.51
59170;BME280;52474;52.236;5.114;2023-04-03T09:22:45;103375.09;;;23.95;27.75
59170;BME280;52474;52.236;5.114;2023-04-03T09:25:27;103371.97;;;20.19;28.96
59170;BME280;52474;52.236;5.114;2023-04-03T09:27:57;103370.41;;;22.43;29.31
59170;BME280;52474;52.236;5.114;2023-04-03T09:30:29;103369.81;;;21.73;28.29
59170;BME280;52474;52.236;5.114;2023-04-03T09:32:56;103368.38;;;21.30;29.05
59170;BME280;52474;52.236;5.114;2023-04-03T09:35:30;103364.00;;;22.71;28.52
59170;BME280;52474;52.236;5.114;2023-04-03T09:38:15;103350.31;;;23.28;26.44
59170;BME280;52474;52.236;5.114;2023-04-03T09:40:50;103358.41;;;23.64;26.50
59170;BME280;52474;52.236;5.114;2023-04-03T09:45:43;103365.75;;;19.65;30.54
59170;BME280;52474;52.236;5.114;2023-04-03T09:53:33;103348.88;;;22.23;28.49
59170;BME280;52474;52.236;5.114;2023-04-03T09:56:02;103320.38;;;22.01;24.99
59170;BME280;52474;52.236;5.114;2023-04-03T09:58:37;103343.16;;;22.64;26.07
59170;BME280;52474;52.236;5.114;2023-04-03T10:01:03;103335.31;;;22.43;27.13
59170;BME280;52474;52.236;5.114;2023-04-03T10:03:32;103326.88;;;23.01;26.46
59170;BME280;52474;52.236;5.114;2023-04-03T10:05:58;103315.38;;;23.35;26.33
59170;BME280;52474;52.236;5.114;2023-04-03T10:08:29;103334.50;;;20.67;26.00
59170;BME280;52474;52.236;5.114;2023-04-03T10:11:19;103304.03;;;23.31;25.17
59170;BME280;52474;52.236;5.114;2023-04-03T10:14:02;103308.97;;;24.83;25.47
59170;BME280;52474;52.236;5.114;2023-04-03T10:16:41;103320.75;;;25.57;23.96
59170;BME280;52474;52.236;5.114;2023-04-03T10:21:54;103310.53;;;25.84;25.56
59170;BME280;52474;52.236;5.114;2023-04-03T10:30:18;103301.81;;;23.71;24.25
59170;BME280;52474;52.236;5.114;2023-04-03T10:33:05;103298.38;;;24.47;23.09
59170;BME280;52474;52.236;5.114;2023-04-03T10:36:05;103284.94;;;23.33;23.13
59170;BME280;52474;52.236;5.114;2023-04-03T10:49:43;103298.03;;;22.46;22.19
59170;BME280;52474;52.236;5.114;2023-04-03T10:52:40;103285.66;;;19.80;24.41
59170;BME280;52474;52.236;5.114;2023-04-03T10:55:43;103288.91;;;24.51;22.46
59170;BME280;52474;52.236;5.114;2023-04-03T10:58:26;103268.56;;;22.99;22.38
59170;BME280;52474;52.236;5.114;2023-04-03T11:00:59;103287.25;;;22.92;25.24
59170;BME280;52474;52.236;5.114;2023-04-03T11:05:57;103294.28;;;23.21;22.08
59170;BME280;52474;52.236;5.114;2023-04-03T11:11:16;103282.63;;;22.84;22.38
59170;BME280;52474;52.236;5.114;2023-04-03T11:16:24;103276.88;;;21.18;24.59
59170;BME280;52474;52.236;5.114;2023-04-03T11:19:11;103281.25;;;22.53;22.42
59170;BME280;52474;52.236;5.114;2023-04-03T11:24:27;103267.88;;;22.51;24.58
59170;BME280;52474;52.236;5.114;2023-04-03T11:26:58;103256.28;;;21.66;26.06
59170;BME280;52474;52.236;5.114;2023-04-03T11:29:35;103289.88;;;20.34;26.58
59170;BME280;52474;52.236;5.114;2023-04-03T11:32:18;103266.13;;;19.66;27.59
59170;BME280;52474;52.236;5.114;2023-04-03T11:34:57;103262.78;;;21.73;23.96
59170;BME280;52474;52.236;5.114;2023-04-03T11:37:44;103262.16;;;22.82;25.24
59170;BME280;52474;52.236;5.114;2023-04-03T11:40:28;103261.34;;;19.91;26.43
59170;BME280;52474;52.236;5.114;2023-04-03T11:45:26;103253.75;;;21.55;27.43
59170;BME280;52474;52.236;5.114;2023-04-03T11:48:04;103262.19;;;21.89;24.01
59170;BME280;52474;52.236;5.114;2023-04-03T12:01:00;103244.38;;;22.61;24.51
59170;BME280;52474;52.236;5.114;2023-04-03T12:03:30;103210.41;;;21.76;23.34
59170;BME280;52474;52.236;5.114;2023-04-03T12:08:53;103200.56;;;21.47;25.58
59170;BME280;52474;52.236;5.114;2023-04-03T12:11:32;103226.41;;;21.01;26.11
59170;BME280;52474;52.236;5.114;2023-04-03T12:16:42;103216.13;;;19.33;26.43
59170;BME280;52474;52.236;5.114;2023-04-03T12:40:51;103192.25;;;15.84;34.30
59170;BME280;52474;52.236;5.114;2023-04-03T12:43:40;103174.41;;;16.35;32.89
59170;BME280;52474;52.236;5.114;2023-04-03T12:48:46;103179.31;;;15.91;35.18
59170;BME280;52474;52.236;5.114;2023-04-03T12:51:21;103169.13;;;15.45;33.44
59170;BME280;52474;52.236;5.114;2023-04-03T12:53:50;103188.31;;;15.90;34.10
59170;BME280;52474;52.236;5.114;2023-04-03T12:56:23;103167.25;;;14.94;37.09
59170;BME280;52474;52.236;5.114;2023-04-03T12:59:12;103179.53;;;14.43;39.33
59170;BME280;52474;52.236;5.114;2023-04-03T13:01:36;103166.09;;;13.88;40.07
59170;BME280;52474;52.236;5.114;2023-04-03T13:04:01;103163.41;;;13.60;40.49
59170;BME280;52474;52.236;5.114;2023-04-03T13:06:41;103166.44;;;13.53;44.09
59170;BME280;52474;52.236;5.114;2023-04-03T13:09:27;103159.50;;;13.65;41.07
59170;BME280;52474;52.236;5.114;2023-04-03T13:12:02;103147.41;;;14.44;42.60
59170;BME280;52474;52.236;5.114;2023-04-03T13:14:29;103160.47;;;15.16;37.78
59170;BME280;52474;52.236;5.114;2023-04-03T13:17:06;103155.34;;;14.73;39.52
59170;BME280;52474;52.236;5.114;2023-04-03T13:19:39;103158.09;;;14.71;36.84
59170;BME280;52474;52.236;5.114;2023-04-03T13:24:47;103153.78;;;15.36;39.20
59170;BME280;52474;52.236;5.114;2023-04-03T13:27:14;103151.66;;;14.88;39.82
59170;BME280;52474;52.236;5.114;2023-04-03T13:29:41;103140.94;;;14.07;42.36
59170;BME280;52474;52.236;5.114;2023-04-03T13:32:07;103150.75;;;13.78;40.23
59170;BME280;52474;52.236;5.114;2023-04-03T13:34:45;103149.00;;;14.05;41.87
59170;BME280;52474;52.236;5.114;2023-04-03T13:37:33;103151.38;;;14.66;41.75
59170;BME280;52474;52.236;5.114;2023-04-03T13:42:31;103153.22;;;13.95;42.88
59170;BME280;52474;52.236;5.114;2023-04-03T13:45:25;103158.75;;;12.88;40.95
59170;BME280;52474;52.236;5.114;2023-04-03T13:48:17;103151.84;;;12.70;43.09
59170;BME280;52474;52.236;5.114;2023-04-03T13:51:02;103159.59;;;13.49;43.69
59170;BME280;52474;52.236;5.114;2023-04-03T13:53:31;103160.59;;;12.56;44.31
59170;BME280;52474;52.236;5.114;2023-04-03T13:56:14;103154.38;;;13.18;45.40
59170;BME280;52474;52.236;5.114;2023-04-03T14:01:25;103123.66;;;12.82;45.79
59170;BME280;52474;52.236;5.114;2023-04-03T14:06:19;103138.56;;;12.70;48.20
59170;BME280;52474;52.236;5.114;2023-04-03T14:08:46;103139.78;;;12.33;48.15
59170;BME280;52474;52.236;5.114;2023-04-03T14:11:19;103135.50;;;12.30;47.57
59170;BME280;52474;52.236;5.114;2023-04-03T14:13:47;103128.13;;;12.03;48.54
59170;BME280;52474;52.236;5.114;2023-04-03T14:16:18;103126.22;;;12.53;50.07
59170;BME280;52474;52.236;5.114;2023-04-03T14:18:45;103122.63;;;12.54;50.50
59170;BME280;52474;52.236;5.114;2023-04-03T14:21:13;103116.13;;;12.74;50.27
59170;BME280;52474;52.236;5.114;2023-04-03T14:23:43;103118.16;;;12.55;47.94
59170;BME280;52474;52.236;5.114;2023-04-03T14:26:17;103113.81;;;12.84;45.44
59170;BME280;52474;52.236;5.114;2023-04-03T14:28:48;103092.44;;;12.55;44.60
59170;BME280;52474;52.236;5.114;2023-04-03T14:31:15;103091.75;;;12.52;45.39
59170;BME280;52474;52.236;5.114;2023-04-03T14:33:41;103107.78;;;12.66;47.71
59170;BME280;52474;52.236;5.114;2023-04-03T14:36:20;103088.75;;;12.58;53.10
59170;BME280;52474;52.236;5.114;2023-04-03T14:38:47;103093.22;;;12.25;55.37
59170;BME280;52474;52.236;5.114;2023-04-03T14:41:19;103106.34;;;11.48;56.47
59170;BME280;52474;52.236;5.114;2023-04-03T14:43:46;103110.25;;;11.41;59.36
59170;BME280;52474;52.236;5.114;2023-04-03T14:46:32;103101.69;;;11.85;58.37
59170;BME280;52474;52.236;5.114;2023-04-03T14:48:58;103096.16;;;11.89;60.80
59170;BME280;52474;52.236;5.114;2023-04-03T14:51:25;103107.25;;;11.80;62.56
59170;BME280;52474;52.236;5.114;2023-04-03T14:53:51;103101.47;;;11.89;55.59